sensor_id;sensor_type;location;lat;lon;timestamp;P1;durP1;ratioP1;P2;durP2;ratioP2
73850;SDS011;62190;51.548;5.688;2023-06-14T00:02:11;8.50;;;5.42;;
73850;SDS011;62190;51.548;5.688;2023-06-14T00:04:38;11.25;;;5.58;;
73850;SDS011;62190;51.548;5.688;2023-06-14T00:07:07;9.50;;;5.78;;
73850;SDS011;62190;51.548;5.688;2023-06-14T00:09:34;7.33;;;5.15;;
73850;SDS011;62190;51.548;5.688;2023-06-14T00:12:01;8.20;;;5.37;;
73850;SDS011;62190;51.548;5.688;2023-06-14T00:14:34;11.60;;;6.62;;
73850;SDS011;62190;51.548;5.688;2023-06-14T00:17:01;9.53;;;6.08;;
73850;SDS011;62190;51.548;5.688;2023-06-14T00:19:28;9.70;;;5.47;;
73850;SDS011;62190;51.548;5.688;2023-06-14T00:21:58;12.68;;;6.20;;
73850;SDS011;62190;51.548;5.688;2023-06-14T00:24:25;9.98;;;5.60;;
73850;SDS011;62190;51.548;5.688;2023-06-14T00:26:53;8.60;;;5.35;;
73850;SDS011;62190;51.548;5.688;2023-06-14T00:29:20;8.30;;;5.50;;
73850;SDS011;62190;51.548;5.688;2023-06-14T00:31:48;8.30;;;5.75;;
73850;SDS011;62190;51.548;5.688;2023-06-14T00:34:15;10.13;;;5.35;;
73850;SDS011;62190;51.548;5.688;2023-06-14T00:36:42;9.00;;;6.17;;
73850;SDS011;62190;51.548;5.688;2023-06-14T00:39:10;9.00;;;6.03;;
73850;SDS011;62190;51.548;5.688;2023-06-14T00:41:39;10.60;;;5.55;;
73850;SDS011;62190;51.548;5.688;2023-06-14T00:44:09;7.62;;;5.62;;
73850;SDS011;62190;51.548;5.688;2023-06-14T00:46:38;11.55;;;6.15;;
73850;SDS011;62190;51.548;5.688;2023-06-14T00:49:06;9.68;;;4.85;;
73850;SDS011;62190;51.548;5.688;2023-06-14T00:51:33;10.25;;;5.25;;
73850;SDS011;62190;51.548;5.688;2023-06-14T00:54:01;9.70;;;5.90;;
73850;SDS011;62190;51.548;5.688;2023-06-14T00:56:28;10.63;;;5.45;;
73850;SDS011;62190;51.548;5.688;2023-06-14T00:58:55;8.13;;;5.22;;
73850;SDS011;62190;51.548;5.688;2023-06-14T01:01:23;7.37;;;5.05;;
73850;SDS011;62190;51.548;5.688;2023-06-14T01:03:51;10.30;;;5.12;;
73850;SDS011;62190;51.548;5.688;2023-06-14T01:06:19;9.33;;;4.80;;
73850;SDS011;62190;51.548;5.688;2023-06-14T01:08:51;9.40;;;4.70;;
73850;SDS011;62190;51.548;5.688;2023-06-14T01:11:54;8.55;;;5.53;;
73850;SDS011;62190;51.548;5.688;2023-06-14T01:14:34;7.75;;;4.95;;
73850;SDS011;62190;51.548;5.688;2023-06-14T01:17:00;7.67;;;5.28;;
73850;SDS011;62190;51.548;5.688;2023-06-14T01:19:29;5.97;;;4.58;;
73850;SDS011;62190;51.548;5.688;2023-06-14T01:22:00;9.23;;;5.30;;
73850;SDS011;62190;51.548;5.688;2023-06-14T01:24:28;8.30;;;4.87;;
73850;SDS011;62190;51.548;5.688;2023-06-14T01:26:57;7.42;;;4.50;;
73850;SDS011;62190;51.548;5.688;2023-06-14T01:29:25;9.13;;;4.70;;
73850;SDS011;62190;51.548;5.688;2023-06-14T01:31:57;9.20;;;5.17;;
73850;SDS011;62190;51.548;5.688;2023-06-14T01:34:25;7.03;;;4.65;;
73850;SDS011;62190;51.548;5.688;2023-06-14T01:36:52;7.20;;;4.42;;
73850;SDS011;62190;51.548;5.688;2023-06-14T01:39:23;8.85;;;4.45;;
73850;SDS011;62190;51.548;5.688;2023-06-14T01:41:53;7.25;;;4.83;;
73850;SDS011;62190;51.548;5.688;2023-06-14T01:44:20;8.53;;;4.20;;
73850;SDS011;62190;51.548;5.688;2023-06-14T01:46:49;10.18;;;5.00;;
73850;SDS011;62190;51.548;5.688;2023-06-14T01:49:19;6.83;;;4.28;;
73850;SDS011;62190;51.548;5.688;2023-06-14T01:51:46;8.43;;;4.90;;
73850;SDS011;62190;51.548;5.688;2023-06-14T01:54:15;7.10;;;4.20;;
73850;SDS011;62190;51.548;5.688;2023-06-14T01:56:42;7.97;;;4.30;;
73850;SDS011;62190;51.548;5.688;2023-06-14T01:59:11;8.45;;;4.75;;
73850;SDS011;62190;51.548;5.688;2023-06-14T02:01:38;7.55;;;4.17;;
73850;SDS011;62190;51.548;5.688;2023-06-14T02:04:06;6.65;;;4.10;;
73850;SDS011;62190;51.548;5.688;2023-06-14T02:06:33;5.58;;;4.10;;
73850;SDS011;62190;51.548;5.688;2023-06-14T02:09:01;7.00;;;4.22;;
73850;SDS011;62190;51.548;5.688;2023-06-14T02:11:29;9.80;;;3.85;;
73850;SDS011;62190;51.548;5.688;2023-06-14T02:13:57;6.05;;;3.92;;
73850;SDS011;62190;51.548;5.688;2023-06-14T02:16:25;8.73;;;3.75;;
73850;SDS011;62190;51.548;5.688;2023-06-14T02:18:54;8.33;;;4.15;;
73850;SDS011;62190;51.548;5.688;2023-06-14T02:21:22;6.95;;;4.00;;
73850;SDS011;62190;51.548;5.688;2023-06-14T02:23:50;6.55;;;3.98;;
73850;SDS011;62190;51.548;5.688;2023-06-14T02:26:18;6.47;;;4.00;;
73850;SDS011;62190;51.548;5.688;2023-06-14T02:28:45;6.75;;;3.70;;
73850;SDS011;62190;51.548;5.688;2023-06-14T02:31:12;9.55;;;4.25;;
73850;SDS011;62190;51.548;5.688;2023-06-14T02:33:42;7.00;;;3.72;;
73850;SDS011;62190;51.548;5.688;2023-06-14T02:36:09;6.22;;;4.37;;
73850;SDS011;62190;51.548;5.688;2023-06-14T02:38:36;5.67;;;3.52;;
73850;SDS011;62190;51.548;5.688;2023-06-14T02:41:06;6.08;;;3.80;;
73850;SDS011;62190;51.548;5.688;2023-06-14T02:43:33;9.20;;;4.05;;
73850;SDS011;62190;51.548;5.688;2023-06-14T02:46:02;7.12;;;3.62;;
73850;SDS011;62190;51.548;5.688;2023-06-14T02:48:32;6.70;;;3.77;;
73850;SDS011;62190;51.548;5.688;2023-06-14T02:51:00;10.05;;;3.70;;
73850;SDS011;62190;51.548;5.688;2023-06-14T02:53:27;6.65;;;4.08;;
73850;SDS011;62190;51.548;5.688;2023-06-14T02:55:58;6.55;;;3.40;;
73850;SDS011;62190;51.548;5.688;2023-06-14T02:58:27;8.40;;;3.95;;
73850;SDS011;62190;51.548;5.688;2023-06-14T03:00:56;6.33;;;3.55;;
73850;SDS011;62190;51.548;5.688;2023-06-14T03:03:27;9.68;;;4.20;;
73850;SDS011;62190;51.548;5.688;2023-06-14T03:05:56;6.85;;;3.62;;
73850;SDS011;62190;51.548;5.688;2023-06-14T03:08:26;9.68;;;3.75;;
73850;SDS011;62190;51.548;5.688;2023-06-14T03:10:54;8.20;;;3.80;;
73850;SDS011;62190;51.548;5.688;2023-06-14T03:13:21;7.67;;;3.80;;
73850;SDS011;62190;51.548;5.688;2023-06-14T03:15:49;6.92;;;3.72;;
73850;SDS011;62190;51.548;5.688;2023-06-14T03:18:17;7.67;;;3.55;;
73850;SDS011;62190;51.548;5.688;2023-06-14T03:20:46;8.88;;;4.70;;
73850;SDS011;62190;51.548;5.688;2023-06-14T03:23:13;6.87;;;3.65;;
73850;SDS011;62190;51.548;5.688;2023-06-14T03:25:41;6.20;;;3.62;;
73850;SDS011;62190;51.548;5.688;2023-06-14T03:28:08;20.72;;;9.75;;
73850;SDS011;62190;51.548;5.688;2023-06-14T03:30:35;5.35;;;3.50;;
73850;SDS011;62190;51.548;5.688;2023-06-14T03:33:03;5.55;;;3.52;;
73850;SDS011;62190;51.548;5.688;2023-06-14T03:35:30;6.08;;;3.08;;
73850;SDS011;62190;51.548;5.688;2023-06-14T03:37:57;6.30;;;3.75;;
73850;SDS011;62190;51.548;5.688;2023-06-14T03:40:25;6.20;;;3.52;;
73850;SDS011;62190;51.548;5.688;2023-06-14T03:42:55;10.82;;;4.05;;
73850;SDS011;62190;51.548;5.688;2023-06-14T03:45:23;8.58;;;3.70;;
73850;SDS011;62190;51.548;5.688;2023-06-14T03:47:52;7.87;;;4.53;;
73850;SDS011;62190;51.548;5.688;2023-06-14T03:50:20;7.33;;;3.67;;
73850;SDS011;62190;51.548;5.688;2023-06-14T03:52:48;9.18;;;4.08;;
73850;SDS011;62190;51.548;5.688;2023-06-14T03:55:17;5.92;;;3.92;;
73850;SDS011;62190;51.548;5.688;2023-06-14T03:57:46;9.25;;;3.58;;
73850;SDS011;62190;51.548;5.688;2023-06-14T04:00:16;6.92;;;3.67;;
73850;SDS011;62190;51.548;5.688;2023-06-14T04:02:44;4.58;;;3.02;;
73850;SDS011;62190;51.548;5.688;2023-06-14T04:05:13;6.12;;;3.65;;
73850;SDS011;62190;51.548;5.688;2023-06-14T04:07:42;5.45;;;3.37;;
73850;SDS011;62190;51.548;5.688;2023-06-14T04:10:11;6.20;;;3.33;;
73850;SDS011;62190;51.548;5.688;2023-06-14T04:12:39;9.83;;;3.60;;
73850;SDS011;62190;51.548;5.688;2023-06-14T04:15:07;6.92;;;3.30;;
73850;SDS011;62190;51.548;5.688;2023-06-14T04:17:37;6.87;;;3.35;;
73850;SDS011;62190;51.548;5.688;2023-06-14T04:20:04;8.30;;;4.25;;
73850;SDS011;62190;51.548;5.688;2023-06-14T04:22:34;13.75;;;3.85;;
73850;SDS011;62190;51.548;5.688;2023-06-14T04:25:01;9.85;;;3.60;;
73850;SDS011;62190;51.548;5.688;2023-06-14T04:27:34;7.78;;;3.92;;
73850;SDS011;62190;51.548;5.688;2023-06-14T04:30:02;5.05;;;3.75;;
73850;SDS011;62190;51.548;5.688;2023-06-14T04:32:29;5.47;;;2.98;;
73850;SDS011;62190;51.548;5.688;2023-06-14T04:34:58;7.65;;;3.12;;
73850;SDS011;62190;51.548;5.688;2023-06-14T04:37:30;7.15;;;3.67;;
73850;SDS011;62190;51.548;5.688;2023-06-14T04:39:56;9.88;;;3.87;;
73850;SDS011;62190;51.548;5.688;2023-06-14T04:42:25;5.08;;;3.08;;
73850;SDS011;62190;51.548;5.688;2023-06-14T04:44:54;7.35;;;3.60;;
73850;SDS011;62190;51.548;5.688;2023-06-14T04:47:22;5.42;;;3.15;;
73850;SDS011;62190;51.548;5.688;2023-06-14T04:49:52;5.83;;;3.15;;
73850;SDS011;62190;51.548;5.688;2023-06-14T04:52:20;7.35;;;3.22;;
73850;SDS011;62190;51.548;5.688;2023-06-14T04:54:48;10.38;;;3.50;;
73850;SDS011;62190;51.548;5.688;2023-06-14T04:57:17;5.72;;;2.95;;
73850;SDS011;62190;51.548;5.688;2023-06-14T04:59:46;7.95;;;3.22;;
73850;SDS011;62190;51.548;5.688;2023-06-14T05:02:16;6.95;;;3.47;;
73850;SDS011;62190;51.548;5.688;2023-06-14T05:04:45;4.12;;;2.75;;
73850;SDS011;62190;51.548;5.688;2023-06-14T05:07:13;9.40;;;3.27;;
73850;SDS011;62190;51.548;5.688;2023-06-14T05:09:41;10.63;;;3.52;;
73850;SDS011;62190;51.548;5.688;2023-06-14T05:12:10;6.45;;;3.45;;
73850;SDS011;62190;51.548;5.688;2023-06-14T05:14:37;9.75;;;3.98;;
73850;SDS011;62190;51.548;5.688;2023-06-14T05:17:05;7.12;;;3.15;;
73850;SDS011;62190;51.548;5.688;2023-06-14T05:19:32;5.62;;;2.77;;
73850;SDS011;62190;51.548;5.688;2023-06-14T05:22:02;5.05;;;2.72;;
73850;SDS011;62190;51.548;5.688;2023-06-14T05:24:30;8.13;;;3.30;;
73850;SDS011;62190;51.548;5.688;2023-06-14T05:26:57;7.08;;;3.40;;
73850;SDS011;62190;51.548;5.688;2023-06-14T05:29:25;7.12;;;3.08;;
73850;SDS011;62190;51.548;5.688;2023-06-14T05:31:53;9.23;;;3.02;;
73850;SDS011;62190;51.548;5.688;2023-06-14T05:34:20;5.83;;;2.80;;
73850;SDS011;62190;51.548;5.688;2023-06-14T05:36:47;5.95;;;2.60;;
73850;SDS011;62190;51.548;5.688;2023-06-14T05:39:15;5.50;;;3.05;;
73850;SDS011;62190;51.548;5.688;2023-06-14T05:41:42;5.53;;;2.72;;
73850;SDS011;62190;51.548;5.688;2023-06-14T05:44:10;8.28;;;3.20;;
73850;SDS011;62190;51.548;5.688;2023-06-14T05:46:37;5.78;;;2.87;;
73850;SDS011;62190;51.548;5.688;2023-06-14T05:49:05;6.72;;;3.00;;
73850;SDS011;62190;51.548;5.688;2023-06-14T05:51:32;8.78;;;3.65;;
73850;SDS011;62190;51.548;5.688;2023-06-14T05:54:00;4.58;;;3.20;;
73850;SDS011;62190;51.548;5.688;2023-06-14T05:56:28;6.78;;;3.42;;
73850;SDS011;62190;51.548;5.688;2023-06-14T05:58:55;6.72;;;3.47;;
73850;SDS011;62190;51.548;5.688;2023-06-14T06:01:23;5.92;;;3.35;;
73850;SDS011;62190;51.548;5.688;2023-06-14T06:03:50;6.72;;;3.27;;
73850;SDS011;62190;51.548;5.688;2023-06-14T06:06:18;9.10;;;3.05;;
73850;SDS011;62190;51.548;5.688;2023-06-14T06:08:46;7.08;;;3.20;;
73850;SDS011;62190;51.548;5.688;2023-06-14T06:11:13;11.38;;;3.60;;
73850;SDS011;62190;51.548;5.688;2023-06-14T06:13:40;6.25;;;3.37;;
73850;SDS011;62190;51.548;5.688;2023-06-14T06:16:08;8.48;;;3.40;;
73850;SDS011;62190;51.548;5.688;2023-06-14T06:18:35;9.93;;;3.75;;
73850;SDS011;62190;51.548;5.688;2023-06-14T06:21:03;6.90;;;3.40;;
73850;SDS011;62190;51.548;5.688;2023-06-14T06:23:31;7.45;;;3.33;;
73850;SDS011;62190;51.548;5.688;2023-06-14T06:25:59;10.70;;;3.25;;
73850;SDS011;62190;51.548;5.688;2023-06-14T06:28:26;8.83;;;3.00;;
73850;SDS011;62190;51.548;5.688;2023-06-14T06:30:54;9.98;;;3.08;;
73850;SDS011;62190;51.548;5.688;2023-06-14T06:33:21;8.15;;;2.62;;
73850;SDS011;62190;51.548;5.688;2023-06-14T06:35:49;6.67;;;3.22;;
73850;SDS011;62190;51.548;5.688;2023-06-14T06:38:16;5.33;;;2.77;;
73850;SDS011;62190;51.548;5.688;2023-06-14T06:40:44;5.28;;;3.00;;
73850;SDS011;62190;51.548;5.688;2023-06-14T06:43:12;10.13;;;3.22;;
73850;SDS011;62190;51.548;5.688;2023-06-14T06:45:41;8.90;;;2.87;;
73850;SDS011;62190;51.548;5.688;2023-06-14T06:48:09;4.83;;;2.92;;
73850;SDS011;62190;51.548;5.688;2023-06-14T06:50:36;6.90;;;2.80;;
73850;SDS011;62190;51.548;5.688;2023-06-14T06:53:04;7.58;;;2.70;;
73850;SDS011;62190;51.548;5.688;2023-06-14T06:55:32;6.75;;;2.58;;
73850;SDS011;62190;51.548;5.688;2023-06-14T06:57:59;4.83;;;2.62;;
73850;SDS011;62190;51.548;5.688;2023-06-14T07:00:27;4.95;;;2.65;;
73850;SDS011;62190;51.548;5.688;2023-06-14T07:02:54;9.70;;;2.98;;
73850;SDS011;62190;51.548;5.688;2023-06-14T07:05:22;4.87;;;2.62;;
73850;SDS011;62190;51.548;5.688;2023-06-14T07:07:50;7.17;;;2.83;;
73850;SDS011;62190;51.548;5.688;2023-06-14T07:10:17;7.92;;;2.98;;
73850;SDS011;62190;51.548;5.688;2023-06-14T07:12:44;7.42;;;2.45;;
73850;SDS011;62190;51.548;5.688;2023-06-14T07:15:11;5.05;;;2.30;;
73850;SDS011;62190;51.548;5.688;2023-06-14T07:17:39;6.97;;;3.08;;
73850;SDS011;62190;51.548;5.688;2023-06-14T07:20:07;5.08;;;2.50;;
73850;SDS011;62190;51.548;5.688;2023-06-14T07:22:37;3.92;;;2.33;;
73850;SDS011;62190;51.548;5.688;2023-06-14T07:25:09;5.40;;;2.17;;
73850;SDS011;62190;51.548;5.688;2023-06-14T07:27:38;4.83;;;2.05;;
73850;SDS011;62190;51.548;5.688;2023-06-14T07:30:08;4.33;;;2.50;;
73850;SDS011;62190;51.548;5.688;2023-06-14T07:32:36;4.70;;;2.10;;
73850;SDS011;62190;51.548;5.688;2023-06-14T07:35:04;8.80;;;2.08;;
73850;SDS011;62190;51.548;5.688;2023-06-14T07:37:32;8.40;;;2.17;;
73850;SDS011;62190;51.548;5.688;2023-06-14T07:39:59;6.60;;;1.98;;
73850;SDS011;62190;51.548;5.688;2023-06-14T07:42:28;5.35;;;1.70;;
73850;SDS011;62190;51.548;5.688;2023-06-14T07:44:55;4.40;;;1.85;;
73850;SDS011;62190;51.548;5.688;2023-06-14T07:47:23;6.45;;;1.82;;
73850;SDS011;62190;51.548;5.688;2023-06-14T07:49:50;5.85;;;2.08;;
73850;SDS011;62190;51.548;5.688;2023-06-14T07:52:19;7.85;;;2.00;;
73850;SDS011;62190;51.548;5.688;2023-06-14T07:54:47;5.40;;;1.87;;
73850;SDS011;62190;51.548;5.688;2023-06-14T07:57:14;4.15;;;1.90;;
73850;SDS011;62190;51.548;5.688;2023-06-14T07:59:42;5.97;;;1.90;;
73850;SDS011;62190;51.548;5.688;2023-06-14T08:02:09;5.90;;;1.92;;
73850;SDS011;62190;51.548;5.688;2023-06-14T08:04:36;4.28;;;1.75;;
73850;SDS011;62190;51.548;5.688;2023-06-14T08:07:03;5.22;;;2.22;;
73850;SDS011;62190;51.548;5.688;2023-06-14T08:09:31;2.85;;;1.80;;
73850;SDS011;62190;51.548;5.688;2023-06-14T08:11:58;5.45;;;1.92;;
73850;SDS011;62190;51.548;5.688;2023-06-14T08:14:25;2.30;;;1.35;;
73850;SDS011;62190;51.548;5.688;2023-06-14T08:16:54;4.17;;;1.20;;
73850;SDS011;62190;51.548;5.688;2023-06-14T08:19:21;3.65;;;1.50;;
73850;SDS011;62190;51.548;5.688;2023-06-14T08:21:49;3.37;;;1.80;;
73850;SDS011;62190;51.548;5.688;2023-06-14T08:24:16;3.58;;;1.62;;
73850;SDS011;62190;51.548;5.688;2023-06-14T08:26:44;5.47;;;1.62;;
73850;SDS011;62190;51.548;5.688;2023-06-14T08:29:11;2.37;;;1.60;;
73850;SDS011;62190;51.548;5.688;2023-06-14T08:31:39;3.52;;;1.45;;
73850;SDS011;62190;51.548;5.688;2023-06-14T08:34:06;4.70;;;1.40;;
73850;SDS011;62190;51.548;5.688;2023-06-14T08:36:34;4.85;;;1.32;;
73850;SDS011;62190;51.548;5.688;2023-06-14T08:39:02;6.12;;;1.87;;
73850;SDS011;62190;51.548;5.688;2023-06-14T08:41:29;5.08;;;1.55;;
73850;SDS011;62190;51.548;5.688;2023-06-14T08:43:57;2.77;;;1.37;;
73850;SDS011;62190;51.548;5.688;2023-06-14T08:46:25;4.40;;;1.85;;
73850;SDS011;62190;51.548;5.688;2023-06-14T08:48:53;3.50;;;1.30;;
73850;SDS011;62190;51.548;5.688;2023-06-14T08:51:25;2.17;;;0.82;;
73850;SDS011;62190;51.548;5.688;2023-06-14T08:53:57;2.70;;;1.10;;
73850;SDS011;62190;51.548;5.688;2023-06-14T08:56:26;3.25;;;0.80;;
73850;SDS011;62190;51.548;5.688;2023-06-14T08:58:55;2.72;;;0.90;;
73850;SDS011;62190;51.548;5.688;2023-06-14T09:01:34;2.20;;;0.80;;
73850;SDS011;62190;51.548;5.688;2023-06-14T09:04:02;4.05;;;0.80;;
73850;SDS011;62190;51.548;5.688;2023-06-14T09:06:31;1.47;;;0.50;;
73850;SDS011;62190;51.548;5.688;2023-06-14T09:08:58;2.33;;;0.78;;
73850;SDS011;62190;51.548;5.688;2023-06-14T09:11:26;1.85;;;0.75;;
73850;SDS011;62190;51.548;5.688;2023-06-14T09:13:54;2.55;;;1.00;;
73850;SDS011;62190;51.548;5.688;2023-06-14T09:16:23;4.97;;;1.02;;
73850;SDS011;62190;51.548;5.688;2023-06-14T09:18:51;1.82;;;0.70;;
73850;SDS011;62190;51.548;5.688;2023-06-14T09:21:19;3.40;;;0.72;;
73850;SDS011;62190;51.548;5.688;2023-06-14T09:23:49;1.47;;;0.78;;
73850;SDS011;62190;51.548;5.688;2023-06-14T09:26:19;2.95;;;0.88;;
73850;SDS011;62190;51.548;5.688;2023-06-14T09:28:49;3.50;;;0.90;;
73850;SDS011;62190;51.548;5.688;2023-06-14T09:31:17;3.15;;;1.02;;
73850;SDS011;62190;51.548;5.688;2023-06-14T09:33:46;2.40;;;1.07;;
73850;SDS011;62190;51.548;5.688;2023-06-14T09:36:15;2.75;;;0.70;;
73850;SDS011;62190;51.548;5.688;2023-06-14T09:39:05;3.50;;;1.10;;
73850;SDS011;62190;51.548;5.688;2023-06-14T09:41:19;2.60;;;0.75;;
73850;SDS011;62190;51.548;5.688;2023-06-14T09:43:47;2.42;;;0.90;;
73850;SDS011;62190;51.548;5.688;2023-06-14T09:46:15;2.85;;;0.95;;
73850;SDS011;62190;51.548;5.688;2023-06-14T09:48:43;3.60;;;1.00;;
73850;SDS011;62190;51.548;5.688;2023-06-14T09:51:10;3.47;;;1.20;;
73850;SDS011;62190;51.548;5.688;2023-06-14T09:53:40;2.37;;;1.07;;
73850;SDS011;62190;51.548;5.688;2023-06-14T09:56:08;3.17;;;1.17;;
73850;SDS011;62190;51.548;5.688;2023-06-14T09:58:39;1.75;;;0.80;;
73850;SDS011;62190;51.548;5.688;2023-06-14T10:01:06;1.65;;;1.00;;
73850;SDS011;62190;51.548;5.688;2023-06-14T10:03:36;3.05;;;1.57;;
73850;SDS011;62190;51.548;5.688;2023-06-14T10:06:06;4.58;;;0.95;;
73850;SDS011;62190;51.548;5.688;2023-06-14T10:08:35;2.20;;;0.98;;
73850;SDS011;62190;51.548;5.688;2023-06-14T10:11:04;3.83;;;1.07;;
73850;SDS011;62190;51.548;5.688;2023-06-14T10:13:32;1.90;;;1.00;;
73850;SDS011;62190;51.548;5.688;2023-06-14T10:16:09;4.08;;;0.93;;
73850;SDS011;62190;51.548;5.688;2023-06-14T10:21:37;1.70;;;0.98;;
73850;SDS011;62190;51.548;5.688;2023-06-14T10:24:10;1.98;;;1.05;;
73850;SDS011;62190;51.548;5.688;2023-06-14T10:27:01;4.80;;;1.00;;
73850;SDS011;62190;51.548;5.688;2023-06-14T10:29:18;2.40;;;0.90;;
73850;SDS011;62190;51.548;5.688;2023-06-14T10:31:51;2.37;;;1.10;;
73850;SDS011;62190;51.548;5.688;2023-06-14T10:34:29;2.60;;;0.82;;
73850;SDS011;62190;51.548;5.688;2023-06-14T10:37:04;1.50;;;0.80;;
73850;SDS011;62190;51.548;5.688;2023-06-14T10:39:45;3.12;;;0.95;;
73850;SDS011;62190;51.548;5.688;2023-06-14T10:42:15;2.10;;;1.17;;
73850;SDS011;62190;51.548;5.688;2023-06-14T10:44:52;4.62;;;1.30;;
73850;SDS011;62190;51.548;5.688;2023-06-14T10:47:31;3.17;;;1.37;;
73850;SDS011;62190;51.548;5.688;2023-06-14T10:50:07;2.08;;;0.98;;
73850;SDS011;62190;51.548;5.688;2023-06-14T10:52:40;1.67;;;1.10;;
73850;SDS011;62190;51.548;5.688;2023-06-14T10:55:10;2.87;;;1.00;;
73850;SDS011;62190;51.548;5.688;2023-06-14T11:00:11;2.30;;;0.85;;
73850;SDS011;62190;51.548;5.688;2023-06-14T11:05:14;2.00;;;0.98;;
73850;SDS011;62190;51.548;5.688;2023-06-14T11:13:07;1.65;;;0.80;;
73850;SDS011;62190;51.548;5.688;2023-06-14T11:15:36;2.90;;;0.85;;
73850;SDS011;62190;51.548;5.688;2023-06-14T11:18:05;2.00;;;0.82;;
73850;SDS011;62190;51.548;5.688;2023-06-14T11:20:34;2.47;;;1.02;;
73850;SDS011;62190;51.548;5.688;2023-06-14T11:23:02;2.45;;;0.85;;
73850;SDS011;62190;51.548;5.688;2023-06-14T11:25:30;1.60;;;0.80;;
73850;SDS011;62190;51.548;5.688;2023-06-14T11:27:58;3.33;;;0.80;;
73850;SDS011;62190;51.548;5.688;2023-06-14T11:30:25;2.70;;;0.82;;
73850;SDS011;62190;51.548;5.688;2023-06-14T11:32:53;1.98;;;0.88;;
73850;SDS011;62190;51.548;5.688;2023-06-14T11:35:21;2.65;;;0.70;;
73850;SDS011;62190;51.548;5.688;2023-06-14T11:37:53;3.80;;;1.15;;
73850;SDS011;62190;51.548;5.688;2023-06-14T11:40:25;3.17;;;1.00;;
73850;SDS011;62190;51.548;5.688;2023-06-14T11:42:58;1.75;;;1.00;;
73850;SDS011;62190;51.548;5.688;2023-06-14T11:45:27;2.05;;;1.10;;
73850;SDS011;62190;51.548;5.688;2023-06-14T11:47:56;3.15;;;1.00;;
73850;SDS011;62190;51.548;5.688;2023-06-14T11:50:25;3.02;;;0.90;;
73850;SDS011;62190;51.548;5.688;2023-06-14T11:52:54;2.33;;;0.95;;
73850;SDS011;62190;51.548;5.688;2023-06-14T11:55:42;1.95;;;0.90;;
73850;SDS011;62190;51.548;5.688;2023-06-14T11:58:03;3.08;;;1.02;;
73850;SDS011;62190;51.548;5.688;2023-06-14T12:00:31;4.83;;;1.15;;
73850;SDS011;62190;51.548;5.688;2023-06-14T12:02:59;2.55;;;0.85;;
73850;SDS011;62190;51.548;5.688;2023-06-14T12:05:27;1.55;;;0.90;;
73850;SDS011;62190;51.548;5.688;2023-06-14T12:07:58;4.42;;;1.00;;
73850;SDS011;62190;51.548;5.688;2023-06-14T12:10:26;2.65;;;1.07;;
73850;SDS011;62190;51.548;5.688;2023-06-14T12:12:57;3.22;;;0.80;;
73850;SDS011;62190;51.548;5.688;2023-06-14T12:15:29;2.37;;;1.00;;
73850;SDS011;62190;51.548;5.688;2023-06-14T12:17:58;1.75;;;1.15;;
73850;SDS011;62190;51.548;5.688;2023-06-14T12:20:30;2.50;;;1.15;;
73850;SDS011;62190;51.548;5.688;2023-06-14T12:23:02;1.57;;;0.88;;
73850;SDS011;62190;51.548;5.688;2023-06-14T12:25:33;3.15;;;1.10;;
73850;SDS011;62190;51.548;5.688;2023-06-14T12:28:05;3.20;;;1.00;;
73850;SDS011;62190;51.548;5.688;2023-06-14T12:30:34;2.75;;;0.93;;
73850;SDS011;62190;51.548;5.688;2023-06-14T12:33:03;1.62;;;0.88;;
73850;SDS011;62190;51.548;5.688;2023-06-14T12:35:31;2.62;;;0.80;;
73850;SDS011;62190;51.548;5.688;2023-06-14T12:37:58;2.20;;;0.70;;
73850;SDS011;62190;51.548;5.688;2023-06-14T12:40:25;1.52;;;0.80;;
73850;SDS011;62190;51.548;5.688;2023-06-14T12:42:53;1.10;;;0.70;;
73850;SDS011;62190;51.548;5.688;2023-06-14T12:45:20;2.45;;;0.82;;
73850;SDS011;62190;51.548;5.688;2023-06-14T12:47:49;2.80;;;0.82;;
73850;SDS011;62190;51.548;5.688;2023-06-14T12:50:17;3.35;;;1.02;;
73850;SDS011;62190;51.548;5.688;2023-06-14T12:52:44;3.98;;;0.70;;
73850;SDS011;62190;51.548;5.688;2023-06-14T12:55:11;3.72;;;1.17;;
73850;SDS011;62190;51.548;5.688;2023-06-14T12:57:40;2.17;;;0.80;;
73850;SDS011;62190;51.548;5.688;2023-06-14T13:00:07;2.70;;;1.10;;
73850;SDS011;62190;51.548;5.688;2023-06-14T13:02:35;5.90;;;1.00;;
73850;SDS011;62190;51.548;5.688;2023-06-14T13:05:02;1.37;;;0.90;;
73850;SDS011;62190;51.548;5.688;2023-06-14T13:07:32;1.30;;;0.72;;
73850;SDS011;62190;51.548;5.688;2023-06-14T13:09:59;2.22;;;0.75;;
73850;SDS011;62190;51.548;5.688;2023-06-14T13:12:26;1.87;;;0.95;;
73850;SDS011;62190;51.548;5.688;2023-06-14T13:14:53;2.92;;;0.80;;
73850;SDS011;62190;51.548;5.688;2023-06-14T13:17:21;5.22;;;1.02;;
73850;SDS011;62190;51.548;5.688;2023-06-14T13:19:48;4.35;;;1.15;;
73850;SDS011;62190;51.548;5.688;2023-06-14T13:22:15;3.10;;;1.05;;
73850;SDS011;62190;51.548;5.688;2023-06-14T13:24:43;3.55;;;0.90;;
73850;SDS011;62190;51.548;5.688;2023-06-14T13:27:10;3.37;;;0.98;;
73850;SDS011;62190;51.548;5.688;2023-06-14T13:29:39;2.98;;;0.95;;
73850;SDS011;62190;51.548;5.688;2023-06-14T13:32:07;2.40;;;1.07;;
73850;SDS011;62190;51.548;5.688;2023-06-14T13:34:34;3.65;;;1.02;;
73850;SDS011;62190;51.548;5.688;2023-06-14T13:37:02;1.80;;;0.70;;
73850;SDS011;62190;51.548;5.688;2023-06-14T13:39:30;2.30;;;0.72;;
73850;SDS011;62190;51.548;5.688;2023-06-14T13:41:57;5.95;;;0.70;;
73850;SDS011;62190;51.548;5.688;2023-06-14T13:44:24;2.65;;;0.60;;
73850;SDS011;62190;51.548;5.688;2023-06-14T13:46:52;3.25;;;1.00;;
73850;SDS011;62190;51.548;5.688;2023-06-14T13:49:19;3.15;;;0.60;;
73850;SDS011;62190;51.548;5.688;2023-06-14T13:51:46;1.52;;;0.60;;
73850;SDS011;62190;51.548;5.688;2023-06-14T13:54:14;1.17;;;0.45;;
73850;SDS011;62190;51.548;5.688;2023-06-14T13:56:44;1.30;;;0.70;;
73850;SDS011;62190;51.548;5.688;2023-06-14T13:59:11;2.20;;;0.90;;
73850;SDS011;62190;51.548;5.688;2023-06-14T14:01:39;3.12;;;0.78;;
73850;SDS011;62190;51.548;5.688;2023-06-14T14:04:06;1.35;;;0.50;;
73850;SDS011;62190;51.548;5.688;2023-06-14T14:06:33;2.05;;;0.60;;
73850;SDS011;62190;51.548;5.688;2023-06-14T14:09:01;2.20;;;0.70;;
73850;SDS011;62190;51.548;5.688;2023-06-14T14:11:28;4.12;;;0.82;;
73850;SDS011;62190;51.548;5.688;2023-06-14T14:13:57;3.33;;;0.50;;
73850;SDS011;62190;51.548;5.688;2023-06-14T14:16:24;2.35;;;0.60;;
73850;SDS011;62190;51.548;5.688;2023-06-14T14:18:52;1.67;;;0.60;;
73850;SDS011;62190;51.548;5.688;2023-06-14T14:21:19;2.67;;;0.60;;
73850;SDS011;62190;51.548;5.688;2023-06-14T14:23:47;0.88;;;0.55;;
73850;SDS011;62190;51.548;5.688;2023-06-14T14:26:15;3.90;;;0.60;;
73850;SDS011;62190;51.548;5.688;2023-06-14T14:28:42;2.45;;;0.60;;
73850;SDS011;62190;51.548;5.688;2023-06-14T14:31:09;3.47;;;0.93;;
73850;SDS011;62190;51.548;5.688;2023-06-14T14:33:37;5.20;;;0.60;;
73850;SDS011;62190;51.548;5.688;2023-06-14T14:36:04;2.17;;;0.72;;
73850;SDS011;62190;51.548;5.688;2023-06-14T14:38:33;3.77;;;0.78;;
73850;SDS011;62190;51.548;5.688;2023-06-14T14:41:00;1.45;;;0.68;;
73850;SDS011;62190;51.548;5.688;2023-06-14T14:43:27;2.40;;;0.70;;
73850;SDS011;62190;51.548;5.688;2023-06-14T14:45:56;1.75;;;0.50;;
73850;SDS011;62190;51.548;5.688;2023-06-14T14:48:24;6.17;;;0.80;;
73850;SDS011;62190;51.548;5.688;2023-06-14T14:50:51;2.90;;;0.60;;
73850;SDS011;62190;51.548;5.688;2023-06-14T14:53:18;3.52;;;0.65;;
73850;SDS011;62190;51.548;5.688;2023-06-14T14:55:46;2.47;;;0.80;;
73850;SDS011;62190;51.548;5.688;2023-06-14T14:58:13;4.20;;;0.70;;
73850;SDS011;62190;51.548;5.688;2023-06-14T15:00:44;1.40;;;0.93;;
73850;SDS011;62190;51.548;5.688;2023-06-14T15:03:13;1.10;;;0.70;;
73850;SDS011;62190;51.548;5.688;2023-06-14T15:05:41;1.75;;;0.57;;
73850;SDS011;62190;51.548;5.688;2023-06-14T15:08:08;1.98;;;0.62;;
73850;SDS011;62190;51.548;5.688;2023-06-14T15:10:39;2.02;;;0.80;;